Ship Status Report: callsign VK3LAA

sailwx.info

Track history (hours):
 
Tides and Currents Weather Stations Pressure Air Temp Water Temp Dewpoint Dewpoint Depression Visibility Wind Speed Wind Dir Waves Ship Positions

Callsign VK3LAA (name unknown)

Information provided via the YOTREPS network of cruising yachts.

Last reported at 2016-Jul-24 03:00 UTC. Time now 2016-Jul-25 21:58 UTC.
Position N 31°43' E 168°00'.

Wind from 090 at 15 knots

Waves 2.5 meters (8 feet)

Barometer 1025.0 mb

Date/timePositionNaut miles runAvg speedWind from/ knotsBaromVisibWave heightAir tempDewpointWater temp
2016-Jul-24 03:00N 31°43' E 168°00'58 2.4 090 / 151025.0 2.5
2016-Jul-23 03:00N 30°45' E 168°00'39 1.6 135 / 101020.0 1.5
2016-Jul-22 03:00N 30°20' E 167°26'52 2.2 225 / 101017.0 1.0
2016-Jul-21 03:00N 29°49' E 166°37'58 1.2 270 / 51015.0 3.0
2016-Jul-19 03:00N 29°33' E 165°33'59 2.5 270 / 151015.0 1.0
2016-Jul-18 03:00N 28°40' E 165°03'49 2.0 225 / 151017.0 2.0
2016-Jul-17 03:00N 27°52' E 164°55'37 1.5 180 / 51022.0 0.5
2016-Jul-16 03:00N 27°15' E 164°52'53 2.2 045 / 81025.0 1.5
2016-Jul-15 03:00N 26°22' E 164°57'42 1.8 045 / 101024.0 2.0
2016-Jul-14 03:00N 25°43' E 165°15'   045 / 101024.0 1.0
Track history (hours):
 
Tides and Currents Weather Stations Pressure Air Temp Water Temp Dewpoint Dewpoint Depression Visibility Wind Speed Wind Dir Waves Ship Positions

Callsign VK3LAA (name unknown)

Information provided via the YOTREPS network of cruising yachts.

Last reported at 2016-Jul-24 03:00 UTC. Time now 2016-Jul-25 21:58 UTC.
Position N 31°43' E 168°00'.

Wind from 090 at 15 knots

Waves 2.5 meters (8 feet)

Barometer 1025.0 mb

Date/timePositionNaut miles runAvg speedWind from/ knotsBaromVisibWave heightAir tempDewpointWater temp
2016-Jul-24 03:00N 31°43' E 168°00'58 2.4 090 / 151025.0 2.5
2016-Jul-23 03:00N 30°45' E 168°00'39 1.6 135 / 101020.0 1.5
2016-Jul-22 03:00N 30°20' E 167°26'52 2.2 225 / 101017.0 1.0
2016-Jul-21 03:00N 29°49' E 166°37'58 1.2 270 / 51015.0 3.0
2016-Jul-19 03:00N 29°33' E 165°33'59 2.5 270 / 151015.0 1.0
2016-Jul-18 03:00N 28°40' E 165°03'49 2.0 225 / 151017.0 2.0
2016-Jul-17 03:00N 27°52' E 164°55'37 1.5 180 / 51022.0 0.5
2016-Jul-16 03:00N 27°15' E 164°52'53 2.2 045 / 81025.0 1.5
2016-Jul-15 03:00N 26°22' E 164°57'42 1.8 045 / 101024.0 2.0
2016-Jul-14 03:00N 25°43' E 165°15'   045 / 101024.0 1.0

Dump ship's entire track history